createdAt,value
2022-12-23T00:00:45.699Z,28.75
2022-12-23T00:03:13.677Z,27.55
2022-12-23T00:05:41.484Z,30.83
2022-12-23T00:08:09.022Z,28.30
2022-12-23T00:10:40.392Z,30.20
2022-12-23T00:13:27.650Z,26.23
2022-12-23T00:16:05.719Z,26.75
2022-12-23T00:18:33.444Z,26.17
2022-12-23T00:21:09.135Z,25.48
2022-12-23T00:23:40.038Z,26.27
2022-12-23T00:26:12.703Z,24.20
2022-12-23T00:28:40.216Z,26.40
2022-12-23T00:31:09.000Z,24.10
2022-12-23T00:33:39.621Z,27.65
2022-12-23T00:36:23.384Z,26.20
2022-12-23T00:39:09.981Z,26.15
2022-12-23T00:41:56.550Z,29.50
2022-12-23T00:44:24.445Z,27.33
2022-12-23T00:46:52.276Z,24.65
2022-12-23T00:49:39.261Z,30.03
2022-12-23T00:52:10.153Z,27.25
2022-12-23T00:54:37.875Z,28.67
2022-12-23T00:57:05.654Z,27.05
2022-12-23T00:59:33.902Z,26.23
2022-12-23T01:02:20.463Z,29.80
2022-12-23T01:05:07.111Z,29.23
2022-12-23T01:07:34.858Z,28.77
2022-12-23T01:10:02.870Z,29.00
2022-12-23T01:12:30.363Z,26.83
2022-12-23T01:14:57.854Z,25.07
2022-12-23T01:17:25.732Z,26.52
2022-12-23T01:19:53.310Z,25.35
2022-12-23T01:22:20.851Z,24.67
2022-12-23T01:24:48.624Z,27.75
2022-12-23T01:27:16.179Z,25.23
2022-12-23T01:29:43.792Z,26.37
2022-12-23T01:32:11.701Z,26.85
2022-12-23T01:34:39.329Z,29.00
2022-12-23T01:37:06.768Z,27.52
2022-12-23T01:39:34.575Z,27.27
2022-12-23T01:42:21.035Z,25.88
2022-12-23T01:44:56.620Z,26.55
2022-12-23T01:47:36.405Z,26.40
2022-12-23T01:50:13.174Z,28.67
2022-12-23T01:52:50.367Z,28.33
2022-12-23T01:55:23.732Z,26.58
2022-12-23T01:57:55.723Z,25.55
2022-12-23T02:00:41.984Z,27.52
2022-12-23T02:03:28.910Z,26.92
2022-12-23T02:06:18.434Z,27.53
2022-12-23T02:09:04.828Z,27.95
2022-12-23T02:11:42.372Z,26.45
2022-12-23T02:14:41.131Z,25.83
2022-12-23T02:17:22.905Z,25.70
2022-12-23T02:20:28.046Z,26.27
2022-12-23T02:23:26.693Z,25.37
2022-12-23T02:26:16.722Z,27.13
2022-12-23T02:28:49.830Z,23.85
2022-12-23T02:31:43.586Z,25.73
2022-12-23T02:34:19.557Z,25.27
2022-12-23T02:36:53.529Z,24.35
2022-12-23T02:39:33.741Z,28.90
2022-12-23T02:42:09.408Z,26.08
2022-12-23T02:44:45.950Z,28.17
2022-12-23T02:47:20.475Z,30.63
2022-12-23T02:49:52.888Z,28.27
2022-12-23T02:52:24.699Z,30.00
2022-12-23T02:54:57.321Z,30.25
2022-12-23T02:57:29.609Z,29.25
2022-12-23T02:59:57.824Z,27.87
2022-12-23T03:02:25.952Z,30.10
2022-12-23T03:04:53.585Z,31.35
2022-12-23T03:07:43.215Z,28.45
2022-12-23T03:10:18.435Z,27.87
2022-12-23T03:13:03.963Z,27.70
2022-12-23T03:15:37.950Z,25.02
2022-12-23T03:18:11.565Z,26.87
2022-12-23T03:20:45.192Z,25.58
2022-12-23T03:23:38.778Z,26.95
2022-12-23T03:26:16.949Z,25.43
2022-12-23T03:28:49.445Z,23.67
2022-12-23T03:31:23.651Z,26.12
2022-12-23T03:33:57.400Z,24.77
2022-12-23T03:36:31.498Z,24.15
2022-12-23T03:39:02.363Z,24.47
2022-12-23T03:41:42.370Z,26.25
2022-12-23T03:44:16.330Z,25.80
2022-12-23T03:46:48.925Z,25.75
2022-12-23T03:49:23.743Z,25.27
2022-12-23T03:52:20.505Z,25.40
2022-12-23T03:54:54.916Z,26.12
2022-12-23T03:57:28.410Z,26.92
2022-12-23T03:59:56.257Z,27.50
2022-12-23T04:02:24.142Z,25.95
2022-12-23T04:04:57.997Z,25.50
2022-12-23T04:07:31.065Z,24.77
2022-12-23T04:09:59.923Z,27.25
2022-12-23T04:12:29.301Z,27.27
2022-12-23T04:14:56.928Z,27.30
2022-12-23T04:17:24.749Z,26.20
2022-12-23T04:19:53.429Z,24.35
2022-12-23T04:22:21.028Z,26.80
2022-12-23T04:24:48.831Z,24.35
2022-12-23T04:27:17.207Z,25.95
2022-12-23T04:29:44.831Z,23.33
2022-12-23T04:32:12.693Z,23.73
2022-12-23T04:34:40.215Z,24.00
2022-12-23T04:37:07.722Z,22.58
2022-12-23T04:39:35.519Z,22.95
2022-12-23T04:42:02.989Z,23.73
2022-12-23T04:44:30.454Z,23.38
2022-12-23T04:46:58.352Z,24.15
2022-12-23T04:49:25.942Z,23.02
2022-12-23T04:51:53.464Z,23.52
2022-12-23T04:54:21.281Z,24.33
2022-12-23T04:56:48.775Z,23.27
2022-12-23T04:59:16.344Z,23.90
2022-12-23T05:01:44.257Z,22.10
2022-12-23T05:04:12.963Z,23.73
2022-12-23T05:06:40.596Z,21.77
2022-12-23T05:09:08.742Z,22.00
2022-12-23T05:11:41.914Z,21.80
2022-12-23T05:14:11.215Z,21.37
2022-12-23T05:16:39.515Z,22.10
2022-12-23T05:19:07.128Z,20.40
2022-12-23T05:21:34.935Z,23.02
2022-12-23T05:24:02.503Z,22.80
2022-12-23T05:26:30.088Z,21.50
2022-12-23T05:28:57.934Z,23.00
2022-12-23T05:31:25.470Z,21.23
2022-12-23T05:33:53.227Z,21.02
2022-12-23T05:36:21.138Z,21.98
2022-12-23T05:38:48.626Z,21.60
2022-12-23T05:41:17.099Z,22.60
2022-12-23T05:43:44.871Z,21.10
2022-12-23T05:46:12.416Z,21.62
2022-12-23T05:48:40.080Z,23.25
2022-12-23T05:51:07.964Z,21.75
2022-12-23T05:53:36.045Z,21.25
2022-12-23T05:56:05.133Z,21.97
2022-12-23T05:58:33.082Z,21.17
2022-12-23T06:01:03.116Z,21.77
2022-12-23T06:03:31.195Z,20.40
2022-12-23T06:05:58.908Z,23.52
2022-12-23T06:08:26.469Z,21.07
2022-12-23T06:10:54.374Z,19.73
2022-12-23T06:13:21.885Z,21.17
2022-12-23T06:15:49.533Z,20.90
2022-12-23T06:18:17.550Z,21.08
2022-12-23T06:20:47.085Z,20.73
2022-12-23T06:23:14.816Z,21.73
2022-12-23T06:25:42.683Z,21.70
2022-12-23T06:28:10.179Z,19.70
2022-12-23T06:30:37.727Z,22.15
2022-12-23T06:33:05.553Z,21.37
2022-12-23T06:35:33.152Z,21.80
2022-12-23T06:38:00.636Z,20.50
2022-12-23T06:40:29.413Z,21.23
2022-12-23T06:42:56.949Z,21.98
2022-12-23T06:45:24.481Z,20.83
2022-12-23T06:47:52.335Z,24.58
2022-12-23T06:50:20.679Z,20.58
2022-12-23T06:52:49.187Z,19.27
2022-12-23T06:55:17.146Z,20.15
2022-12-23T06:57:45.373Z,19.20
2022-12-23T07:00:13.601Z,18.87
2022-12-23T07:02:41.504Z,20.37
2022-12-23T07:05:09.469Z,20.12
2022-12-23T07:07:37.022Z,20.37
2022-12-23T07:10:05.418Z,20.27
2022-12-23T07:12:33.063Z,17.40
2022-12-23T07:15:00.551Z,20.90
2022-12-23T07:17:28.382Z,19.37
2022-12-23T07:19:55.909Z,19.87
2022-12-23T07:22:23.449Z,18.40
2022-12-23T07:24:51.236Z,18.90
2022-12-23T07:27:18.714Z,20.73
2022-12-23T07:29:47.162Z,20.55
2022-12-23T07:32:14.973Z,20.02
2022-12-23T07:34:42.479Z,19.87
2022-12-23T07:37:09.978Z,20.20
2022-12-23T07:39:38.524Z,13.93
2022-12-23T07:42:34.293Z,16.42
2022-12-23T07:44:53.832Z,24.23
2022-12-23T07:47:21.315Z,20.80
2022-12-23T07:49:48.830Z,20.08
2022-12-23T07:52:17.052Z,21.45
2022-12-23T07:54:44.576Z,20.23
2022-12-23T07:57:12.045Z,18.52
2022-12-23T07:59:39.889Z,20.17
2022-12-23T08:02:07.823Z,21.15
2022-12-23T08:04:39.590Z,20.55
2022-12-23T08:07:10.072Z,20.58
2022-12-23T08:09:37.839Z,19.65
2022-12-23T08:12:05.555Z,21.20
2022-12-23T08:14:33.195Z,21.20
2022-12-23T08:17:01.047Z,18.95
2022-12-23T08:19:28.744Z,19.40
2022-12-23T08:21:56.227Z,18.73
2022-12-23T08:24:24.068Z,20.90
2022-12-23T08:26:51.710Z,19.40
2022-12-23T08:29:19.253Z,20.85
2022-12-23T08:31:47.109Z,19.60
2022-12-23T08:34:14.662Z,18.90
2022-12-23T08:36:42.659Z,18.13
2022-12-23T08:39:11.724Z,19.75
2022-12-23T08:41:42.648Z,19.17
2022-12-23T08:44:11.039Z,19.35
2022-12-23T08:46:39.168Z,20.52
2022-12-23T08:49:07.317Z,19.97
2022-12-23T08:51:36.753Z,21.15
2022-12-23T08:54:04.684Z,21.92
2022-12-23T08:56:34.697Z,22.23
2022-12-23T08:59:03.320Z,22.48
2022-12-23T09:01:33.469Z,22.73
2022-12-23T09:04:06.345Z,23.27
2022-12-23T09:06:40.891Z,25.25
2022-12-23T09:09:10.820Z,26.37
2022-12-23T09:11:39.108Z,25.58
2022-12-23T09:14:08.751Z,24.90
2022-12-23T09:16:36.880Z,25.37
2022-12-23T09:19:05.049Z,25.08
2022-12-23T09:21:32.647Z,25.17
2022-12-23T09:24:00.184Z,25.10
2022-12-23T09:26:30.184Z,23.80
2022-12-23T09:28:58.246Z,26.12
2022-12-23T09:31:32.263Z,23.95
2022-12-23T09:34:04.122Z,24.52
2022-12-23T09:36:31.604Z,24.52
2022-12-23T09:38:59.646Z,23.83
2022-12-23T09:41:44.450Z,24.23
2022-12-23T09:44:23.200Z,24.40
2022-12-23T09:47:13.009Z,22.98
2022-12-23T09:49:49.962Z,26.48
2022-12-23T09:52:43.162Z,20.80
2022-12-23T09:55:12.561Z,24.27
2022-12-23T09:58:02.097Z,26.67
2022-12-23T10:00:39.617Z,24.87
2022-12-23T10:03:25.925Z,28.65
2022-12-23T10:06:10.677Z,34.17
2022-12-23T10:08:51.927Z,33.47
2022-12-23T10:11:24.317Z,32.10
2022-12-23T10:14:00.734Z,29.33
2022-12-23T10:16:32.649Z,28.05
2022-12-23T10:19:07.187Z,29.00
2022-12-23T10:21:48.545Z,26.08
2022-12-23T10:24:26.158Z,26.23
2022-12-23T10:26:56.919Z,23.38
2022-12-23T10:29:30.606Z,23.38
2022-12-23T10:32:18.544Z,24.53
2022-12-23T10:34:56.966Z,23.98
2022-12-23T10:37:38.034Z,23.85
2022-12-23T10:40:32.810Z,22.70
2022-12-23T10:43:32.792Z,22.30
2022-12-23T10:46:00.526Z,19.97
2022-12-23T10:48:34.048Z,20.35
2022-12-23T10:51:08.504Z,22.95
2022-12-23T10:53:46.028Z,21.77
2022-12-23T10:56:15.000Z,20.80
2022-12-23T10:58:45.792Z,20.93
2022-12-23T11:01:25.720Z,21.20
2022-12-23T11:04:09.030Z,21.45
2022-12-23T11:06:43.680Z,20.85
2022-12-23T11:09:19.233Z,19.40
2022-12-23T11:12:08.787Z,18.60
2022-12-23T11:14:41.563Z,18.17
2022-12-23T11:17:28.208Z,17.77
2022-12-23T11:20:11.012Z,16.17
2022-12-23T11:22:51.728Z,15.30
2022-12-23T11:25:40.428Z,15.27
2022-12-23T11:28:16.405Z,15.00
2022-12-23T11:31:05.632Z,16.05
2022-12-23T11:33:37.984Z,15.98
2022-12-23T11:36:14.564Z,15.93
2022-12-23T11:39:18.697Z,13.17
2022-12-23T11:41:48.924Z,15.00
2022-12-23T11:44:40.338Z,16.30
2022-12-23T11:47:35.779Z,14.07
2022-12-23T11:50:24.351Z,14.38
2022-12-23T11:52:54.929Z,14.83
2022-12-23T11:55:32.939Z,15.63
2022-12-23T11:58:02.572Z,14.98
2022-12-23T12:00:41.518Z,14.30
2022-12-23T12:03:17.700Z,15.30
2022-12-23T12:05:55.700Z,15.17
2022-12-23T12:08:30.770Z,14.30
2022-12-23T12:11:18.072Z,14.32
2022-12-23T12:13:50.409Z,14.30
2022-12-23T12:16:43.029Z,14.90
2022-12-23T12:19:16.718Z,15.20
2022-12-23T12:21:46.192Z,15.10
2022-12-23T12:24:21.814Z,15.40
2022-12-23T12:26:53.606Z,14.60
2022-12-23T12:29:37.908Z,15.05
2022-12-23T12:32:14.595Z,13.47
2022-12-23T12:35:02.936Z,11.43
2022-12-23T12:37:56.694Z,11.77
2022-12-23T12:40:32.458Z,11.63
2022-12-23T12:43:11.826Z,9.02
2022-12-23T12:46:02.164Z,8.90
2022-12-23T12:48:46.879Z,9.20
2022-12-23T12:51:18.985Z,7.50
2022-12-23T12:54:14.429Z,7.22
2022-12-23T12:56:56.638Z,8.30
2022-12-23T12:59:36.217Z,8.20
2022-12-23T13:02:26.208Z,7.03
2022-12-23T13:05:35.205Z,6.78
2022-12-23T13:08:05.700Z,7.75
2022-12-23T13:10:45.640Z,9.52
2022-12-23T13:13:41.873Z,7.20
2022-12-23T13:16:21.388Z,7.78
2022-12-23T13:19:00.629Z,7.53
2022-12-23T13:21:51.171Z,8.02
2022-12-23T13:24:23.517Z,7.35
2022-12-23T13:27:15.139Z,7.23
2022-12-23T13:29:58.757Z,6.70
2022-12-23T13:32:30.190Z,7.03
2022-12-23T13:35:09.375Z,6.75
2022-12-23T13:38:01.457Z,7.70
2022-12-23T13:41:10.014Z,7.13
2022-12-23T13:43:46.335Z,7.22
2022-12-23T13:46:55.436Z,7.95
2022-12-23T13:49:48.608Z,8.27
2022-12-23T13:52:27.965Z,7.87
2022-12-23T13:54:55.425Z,7.97
2022-12-23T13:57:41.013Z,7.65
2022-12-23T14:00:18.064Z,7.78
2022-12-23T14:03:02.075Z,8.05
2022-12-23T14:05:38.038Z,8.82
2022-12-23T14:08:19.466Z,8.47
2022-12-23T14:11:11.490Z,8.05
2022-12-23T14:14:45.294Z,8.23
2022-12-23T14:17:26.426Z,8.70
2022-12-23T14:20:18.131Z,9.10
2022-12-23T14:22:57.846Z,8.80
2022-12-23T14:25:41.001Z,9.27
2022-12-23T14:28:20.980Z,9.80
2022-12-23T14:30:49.216Z,9.45
2022-12-23T14:33:32.953Z,9.40
2022-12-23T14:36:22.418Z,9.97
2022-12-23T14:39:13.041Z,9.23
2022-12-23T14:41:50.069Z,10.50
2022-12-23T14:44:39.244Z,10.13
2022-12-23T14:47:31.579Z,10.15
2022-12-23T14:50:54.670Z,9.47
2022-12-23T14:53:33.445Z,10.77
2022-12-23T14:56:21.907Z,12.55
2022-12-23T14:58:49.704Z,13.07
2022-12-23T15:01:29.455Z,13.70
2022-12-23T15:04:01.559Z,15.17
2022-12-23T15:06:38.159Z,14.05
2022-12-23T15:09:07.818Z,14.85
2022-12-23T15:11:37.170Z,15.48
2022-12-23T15:14:11.153Z,15.23
2022-12-23T15:16:45.104Z,14.93
2022-12-23T15:19:21.558Z,15.68
2022-12-23T15:21:59.672Z,15.30
2022-12-23T15:24:32.970Z,14.32
2022-12-23T15:27:25.880Z,14.43
2022-12-23T15:29:51.160Z,14.40
2022-12-23T15:32:23.362Z,14.30
2022-12-23T15:34:52.148Z,14.27
2022-12-23T15:37:29.590Z,13.57
2022-12-23T15:40:06.228Z,14.70
2022-12-23T15:42:39.751Z,13.73
2022-12-23T15:45:39.811Z,15.52
2022-12-23T15:48:25.229Z,15.25
2022-12-23T15:51:00.665Z,13.30
2022-12-23T15:53:33.335Z,12.32
2022-12-23T15:56:06.257Z,12.03
2022-12-23T15:58:37.356Z,12.00
2022-12-23T16:01:06.098Z,12.02
2022-12-23T16:03:35.429Z,11.35
2022-12-23T16:06:16.707Z,12.40
2022-12-23T16:08:45.424Z,11.80
2022-12-23T16:11:13.331Z,12.82
2022-12-23T16:13:47.365Z,12.13
2022-12-23T16:16:19.766Z,12.37
2022-12-23T16:18:48.118Z,14.02
2022-12-23T16:21:15.834Z,12.53
2022-12-23T16:23:50.431Z,11.60
2022-12-23T16:26:18.468Z,11.48
2022-12-23T16:28:49.648Z,11.90
2022-12-23T16:31:19.763Z,11.98
2022-12-23T16:33:47.587Z,12.30
2022-12-23T16:36:26.854Z,11.12
2022-12-23T16:39:00.141Z,11.60
2022-12-23T16:41:27.694Z,10.88
2022-12-23T16:43:55.520Z,11.32
2022-12-23T16:46:23.588Z,10.93
2022-12-23T16:49:00.024Z,10.15
2022-12-23T16:51:30.557Z,10.55
2022-12-23T16:53:58.514Z,9.77
2022-12-23T16:56:36.306Z,12.82
2022-12-23T16:59:04.970Z,13.03
2022-12-23T17:01:36.014Z,10.93
2022-12-23T17:04:04.974Z,11.23
2022-12-23T17:06:33.207Z,12.32
2022-12-23T17:09:00.719Z,13.30
2022-12-23T17:11:35.341Z,14.17
2022-12-23T17:14:05.803Z,16.90
2022-12-23T17:16:34.795Z,15.93
2022-12-23T17:19:02.457Z,14.43
2022-12-23T17:21:33.550Z,13.20
2022-12-23T17:24:16.815Z,14.40
2022-12-23T17:26:44.438Z,14.18
2022-12-23T17:29:13.191Z,14.95
2022-12-23T17:31:42.411Z,14.40
2022-12-23T17:34:16.012Z,14.82
2022-12-23T17:36:49.563Z,14.37
2022-12-23T17:39:18.236Z,14.15
2022-12-23T17:41:46.388Z,14.27
2022-12-23T17:44:15.640Z,13.93
2022-12-23T17:46:43.333Z,13.13
2022-12-23T17:49:11.437Z,11.63
2022-12-23T17:51:40.513Z,12.52
2022-12-23T17:54:21.498Z,11.82
2022-12-23T17:56:50.055Z,12.60
2022-12-23T17:59:17.665Z,11.63
2022-12-23T18:01:45.317Z,12.60
2022-12-23T18:04:13.245Z,8.68
2022-12-23T18:06:40.775Z,9.15
2022-12-23T18:09:08.307Z,9.88
2022-12-23T18:11:42.105Z,9.07
2022-12-23T18:14:29.165Z,8.80
2022-12-23T18:16:57.104Z,9.80
2022-12-23T18:19:25.031Z,14.35
2022-12-23T18:21:53.074Z,18.67
2022-12-23T18:24:20.890Z,18.62
2022-12-23T18:26:48.393Z,16.90
2022-12-23T18:29:15.990Z,24.12
2022-12-23T18:31:50.997Z,23.02
2022-12-23T18:34:20.095Z,20.75
2022-12-23T18:36:48.574Z,16.42
2022-12-23T18:39:16.426Z,14.53
2022-12-23T18:41:43.936Z,16.83
2022-12-23T18:44:20.486Z,14.40
2022-12-23T18:46:49.312Z,16.30
2022-12-23T18:49:17.286Z,16.30
2022-12-23T18:51:45.171Z,16.73
2022-12-23T18:54:17.332Z,17.98
2022-12-23T18:56:45.580Z,19.35
2022-12-23T18:59:21.376Z,17.65
2022-12-23T19:01:52.174Z,17.08
2022-12-23T19:04:19.875Z,16.07
2022-12-23T19:06:47.482Z,15.77
2022-12-23T19:09:20.783Z,16.42
2022-12-23T19:11:50.372Z,11.27
2022-12-23T19:14:18.221Z,14.63
2022-12-23T19:16:51.270Z,17.77
2022-12-23T19:19:20.588Z,17.58
2022-12-23T19:21:48.208Z,15.88
2022-12-23T19:24:15.772Z,13.25
2022-12-23T19:26:43.597Z,12.00
2022-12-23T19:29:11.172Z,12.40
2022-12-23T19:31:38.667Z,16.17
2022-12-23T19:34:12.715Z,17.80
2022-12-23T19:36:42.698Z,15.35
2022-12-23T19:39:17.228Z,17.52
2022-12-23T19:41:45.627Z,17.67
2022-12-23T19:44:14.236Z,18.35
2022-12-23T19:46:42.001Z,18.20
2022-12-23T19:49:14.044Z,18.27
2022-12-23T19:51:45.620Z,20.48
2022-12-23T19:54:13.124Z,21.93
2022-12-23T19:56:40.987Z,20.52
2022-12-23T19:59:08.839Z,19.77
2022-12-23T20:01:36.503Z,19.30
2022-12-23T20:04:05.106Z,17.00
2022-12-23T20:06:38.379Z,17.63
2022-12-23T20:09:08.466Z,16.05
2022-12-23T20:11:38.883Z,16.55
2022-12-23T20:14:07.748Z,16.10
2022-12-23T20:16:36.367Z,16.80
2022-12-23T20:19:04.196Z,15.87
2022-12-23T20:21:32.478Z,15.68
2022-12-23T20:24:00.218Z,16.83
2022-12-23T20:26:29.177Z,20.60
2022-12-23T20:28:57.765Z,26.20
2022-12-23T20:31:28.712Z,27.87
2022-12-23T20:33:57.481Z,24.70
2022-12-23T20:36:29.822Z,21.62
2022-12-23T20:38:58.116Z,21.52
2022-12-23T20:41:28.618Z,21.85
2022-12-23T20:44:32.633Z,23.07
2022-12-23T20:46:44.403Z,23.17
2022-12-23T20:49:12.107Z,14.82
2022-12-23T20:51:39.625Z,13.35
2022-12-23T20:54:07.538Z,12.80
2022-12-23T20:56:36.100Z,12.10
2022-12-23T20:59:04.133Z,12.25
2022-12-23T21:01:38.241Z,17.42
2022-12-23T21:04:15.828Z,17.65
2022-12-23T21:06:44.759Z,21.23
2022-12-23T21:09:14.736Z,26.30
2022-12-23T21:11:45.391Z,33.78
2022-12-23T21:14:14.679Z,34.80
2022-12-23T21:16:42.650Z,20.62
2022-12-23T21:19:21.040Z,25.25
2022-12-23T21:21:50.093Z,35.17
2022-12-23T21:24:18.631Z,39.28
2022-12-23T21:26:50.253Z,39.65
2022-12-23T21:29:21.783Z,39.00
2022-12-23T21:31:49.366Z,38.40
2022-12-23T21:34:18.058Z,29.60
2022-12-23T21:36:45.906Z,25.27
2022-12-23T21:39:16.005Z,22.20
2022-12-23T21:41:45.799Z,18.73
2022-12-23T21:44:16.657Z,19.27
2022-12-23T21:46:44.374Z,19.07
2022-12-23T21:49:12.113Z,19.02
2022-12-23T21:51:41.264Z,19.15
2022-12-23T21:54:11.473Z,19.70
2022-12-23T21:56:40.514Z,20.00
2022-12-23T21:59:12.600Z,18.67
2022-12-23T22:01:41.715Z,17.55
2022-12-23T22:04:09.859Z,19.02
2022-12-23T22:06:41.444Z,16.27
2022-12-23T22:09:12.389Z,17.20
2022-12-23T22:11:39.898Z,17.00
2022-12-23T22:14:08.865Z,16.17
2022-12-23T22:16:37.045Z,15.77
2022-12-23T22:19:06.396Z,15.15
2022-12-23T22:21:35.317Z,14.52
2022-12-23T22:24:03.264Z,14.53
2022-12-23T22:26:32.816Z,14.35
2022-12-23T22:29:03.190Z,13.62
2022-12-23T22:31:38.457Z,14.90
2022-12-23T22:34:07.443Z,13.80
2022-12-23T22:36:35.441Z,13.13
2022-12-23T22:39:03.717Z,14.45
2022-12-23T22:41:32.016Z,14.20
2022-12-23T22:44:00.286Z,13.48
2022-12-23T22:46:28.206Z,13.75
2022-12-23T22:48:56.970Z,15.30
2022-12-23T22:51:30.614Z,14.55
2022-12-23T22:53:58.264Z,17.33
2022-12-23T22:56:26.764Z,17.45
2022-12-23T22:58:55.037Z,21.27
2022-12-23T23:01:29.669Z,20.27
2022-12-23T23:03:59.971Z,24.92
2022-12-23T23:06:32.777Z,22.73
2022-12-23T23:09:01.364Z,20.98
2022-12-23T23:11:28.989Z,19.33
2022-12-23T23:13:57.389Z,15.07
2022-12-23T23:16:26.102Z,16.87
2022-12-23T23:18:54.163Z,15.43
2022-12-23T23:21:22.231Z,14.90
2022-12-23T23:23:50.337Z,23.77
2022-12-23T23:26:19.095Z,26.30
2022-12-23T23:28:47.677Z,22.30
2022-12-23T23:31:45.472Z,20.48
2022-12-23T23:34:03.095Z,19.27
2022-12-23T23:36:30.970Z,19.60
2022-12-23T23:38:58.504Z,19.73
2022-12-23T23:41:26.067Z,19.73
2022-12-23T23:43:53.933Z,17.02
2022-12-23T23:46:21.502Z,13.88
2022-12-23T23:48:49.052Z,15.02
2022-12-23T23:51:16.964Z,13.17
2022-12-23T23:53:44.582Z,13.07
2022-12-23T23:56:12.203Z,11.48
2022-12-23T23:58:40.330Z,11.82
